Time;durP1;ratioP1;P1;durP2;ratioP2;P2;SDS_P1;SDS_P2;PMS_P1;PMS_P2;Temp;Humidity;BMP_temperature;BMP_pressure;BME280_temperature;BME280_humidity;BME280_pressure;Samples;Min_cycle;Max_cycle;Signal;HPM_P1;HPM_P2
2021/03/18 00:01:36;;;;;;;8.52;3.60;;;4.40;75.00;;;;;;5050814;28;20057;-66
2021/03/18 00:04:04;;;;;;;9.23;3.45;;;4.40;75.30;;;;;;5050954;28;20052;-66
2021/03/18 00:06:30;;;;;;;13.20;4.57;;;4.50;75.40;;;;;;5046806;28;20786;-67
2021/03/18 00:08:56;;;;;;;13.68;3.90;;;4.70;75.00;;;;;;5051222;28;20615;-67
2021/03/18 00:11:23;;;;;;;8.25;3.92;;;4.70;74.40;;;;;;5045591;28;20049;-66
2021/03/18 00:13:50;;;;;;;6.72;3.35;;;4.40;75.10;;;;;;5049811;28;20068;-66
2021/03/18 00:16:17;;;;;;;8.20;3.33;;;4.50;75.20;;;;;;5050567;28;20041;-67
2021/03/18 00:18:47;;;;;;;6.63;3.47;;;4.30;75.50;;;;;;5078725;28;20060;-66
2021/03/18 00:21:14;;;;;;;6.93;3.22;;;4.30;75.40;;;;;;5047683;28;20061;-66
2021/03/18 00:23:40;;;;;;;7.75;3.22;;;4.20;75.20;;;;;;5051469;28;20488;-67
2021/03/18 00:26:08;;;;;;;7.47;3.28;;;4.40;75.30;;;;;;5049946;28;20115;-66
2021/03/18 00:28:35;;;;;;;6.00;3.38;;;4.50;74.70;;;;;;5051580;28;20053;-66
2021/03/18 00:31:02;;;;;;;8.45;3.50;;;4.50;74.70;;;;;;5048564;28;20080;-66
2021/03/18 00:33:29;;;;;;;8.95;3.65;;;4.40;74.10;;;;;;5048978;28;20071;-67
2021/03/18 00:35:56;;;;;;;8.18;3.10;;;4.50;74.20;;;;;;5045367;28;20372;-66
2021/03/18 00:38:25;;;;;;;6.03;3.13;;;4.50;74.80;;;;;;5050114;28;20057;-67
2021/03/18 00:40:55;;;;;;;6.82;3.22;;;4.50;73.60;;;;;;5049234;28;20576;-67
2021/03/18 00:43:22;;;;;;;;;;;4.30;74.10;;;;;;5050567;28;20103;-66
2021/03/18 00:45:49;;;;;;;6.13;3.08;;;4.30;74.90;;;;;;5047369;28;19960;-67
2021/03/18 00:48:17;;;;;;;8.02;3.45;;;4.20;73.90;;;;;;5050572;28;20076;-67
2021/03/18 00:50:50;;;;;;;8.13;3.10;;;4.10;74.60;;;;;;5046934;28;20045;-67
2021/03/18 00:53:21;;;;;;;8.32;3.20;;;4.00;75.10;;;;;;5046317;28;20106;-67
2021/03/18 00:55:47;;;;;;;12.65;3.17;;;4.00;74.70;;;;;;5052406;28;20114;-67
2021/03/18 00:58:15;;;;;;;9.23;3.25;;;4.10;74.90;;;;;;5048700;28;20162;-68
2021/03/18 01:00:53;;;;;;;9.55;3.45;;;4.00;74.70;;;;;;5043158;28;20523;-67
2021/03/18 01:03:22;;;;;;;5.70;2.85;;;4.10;75.30;;;;;;5045660;28;20110;-67
2021/03/18 01:06:09;;;;;;;10.95;3.38;;;4.10;74.10;;;;;;5049537;28;20125;-67
2021/03/18 01:08:38;;;;;;;9.40;3.63;;;4.00;75.40;;;;;;5046786;28;20412;-67
2021/03/18 01:11:10;;;;;;;7.03;3.00;;;4.10;74.30;;;;;;5050159;28;20068;-67
2021/03/18 01:13:40;;;;;;;6.50;3.55;;;4.10;73.90;;;;;;5047225;28;20105;-67
2021/03/18 01:16:28;;;;;;;8.40;3.53;;;4.40;74.30;;;;;;5049267;28;20048;-67
2021/03/18 01:19:03;;;;;;;10.38;3.70;;;4.10;74.10;;;;;;5050644;28;20250;-67
2021/03/18 01:21:38;;;;;;;9.32;3.90;;;4.20;74.40;;;;;;5048091;28;20130;-67
2021/03/18 01:24:06;;;;;;;12.25;3.72;;;4.30;75.40;;;;;;5038471;28;20136;-72
2021/03/18 01:26:32;;;;;;;8.10;3.90;;;4.30;74.70;;;;;;5039876;28;20045;-70
2021/03/18 01:29:00;;;;;;;13.30;3.95;;;4.60;74.30;;;;;;5044450;28;20045;-72
2021/03/18 01:31:26;;;;;;;7.75;3.90;;;4.40;73.90;;;;;;5034227;28;20381;-71
2021/03/18 01:33:53;;;;;;;15.90;3.85;;;4.30;74.20;;;;;;5037923;28;20073;-72
2021/03/18 01:36:23;;;;;;;9.90;3.88;;;4.10;74.20;;;;;;5037684;28;20504;-72
2021/03/18 01:38:49;;;;;;;7.20;4.00;;;4.20;74.30;;;;;;5040467;28;20053;-70
2021/03/18 01:41:18;;;;;;;6.88;3.33;;;4.20;75.10;;;;;;5039370;28;20045;-71
2021/03/18 01:43:44;;;;;;;7.60;3.20;;;4.00;74.80;;;;;;5037084;28;20081;-70
2021/03/18 01:46:13;;;;;;;5.97;3.45;;;3.90;75.70;;;;;;5040502;28;20088;-72
2021/03/18 01:48:40;;;;;;;10.27;3.45;;;4.00;75.60;;;;;;5041846;28;20452;-71
2021/03/18 01:51:09;;;;;;;9.10;3.55;;;4.20;75.20;;;;;;5038240;28;20494;-70
2021/03/18 01:53:36;;;;;;;6.88;3.80;;;4.00;76.10;;;;;;5039424;28;20045;-72
2021/03/18 01:56:03;;;;;;;11.05;3.90;;;4.20;76.40;;;;;;5039438;28;20045;-71
2021/03/18 01:58:31;;;;;;;12.32;3.95;;;4.10;75.60;;;;;;5033926;28;20072;-71
2021/03/18 02:01:03;;;;;;;7.32;3.50;;;3.90;75.40;;;;;;5033438;28;20121;-71
2021/03/18 02:03:29;;;;;;;10.48;3.70;;;3.90;75.70;;;;;;5038536;28;20057;-69
2021/03/18 02:05:56;;;;;;;8.40;3.47;;;4.10;76.80;;;;;;5036108;28;20041;-71
2021/03/18 02:08:22;;;;;;;8.40;3.67;;;3.80;76.80;;;;;;5036635;28;20402;-71
2021/03/18 02:10:51;;;;;;;6.28;3.15;;;4.00;75.90;;;;;;5037955;28;20041;-71
2021/03/18 02:13:18;;;;;;;7.82;4.00;;;4.00;75.80;;;;;;5037685;28;20046;-70
2021/03/18 02:16:10;;;;;;;11.65;3.65;;;4.00;75.40;;;;;;5035481;28;20538;-71
2021/03/18 02:18:48;;;;;;;9.35;3.88;;;4.00;75.50;;;;;;5036353;28;20057;-72
2021/03/18 02:21:36;;;;;;;8.10;3.08;;;3.90;76.30;;;;;;5043129;28;20091;-71
2021/03/18 02:24:27;;;;;;;12.43;3.70;;;3.70;76.30;;;;;;5039671;28;20091;-73
2021/03/18 02:27:12;;;;;;;;;;;3.60;77.30;;;;;;5049562;28;20053;-70
2021/03/18 02:29:59;;;;;;;8.15;3.20;;;3.60;77.60;;;;;;5037443;28;20379;-71
2021/03/18 02:32:38;;;;;;;6.88;3.40;;;3.60;76.90;;;;;;5036875;28;20084;-72
2021/03/18 02:35:23;;;;;;;7.53;3.10;;;3.80;76.40;;;;;;5039825;28;20463;-72
2021/03/18 02:37:59;;;;;;;11.57;3.22;;;3.90;76.20;;;;;;5039887;28;20137;-71
2021/03/18 02:40:30;;;;;;;6.10;3.15;;;3.80;76.60;;;;;;5040404;28;20041;-70
2021/03/18 02:42:59;;;;;;;13.77;3.22;;;3.70;77.50;;;;;;5038657;28;20045;-74
2021/03/18 02:45:31;;;;;;;7.60;3.70;;;3.80;77.30;;;;;;5035948;28;20060;-73
2021/03/18 02:47:59;;;;;;;6.03;3.08;;;3.70;77.40;;;;;;5039079;28;20472;-73
2021/03/18 02:50:28;;;;;;;9.93;3.78;;;3.70;76.90;;;;;;5031774;28;20128;-72
2021/03/18 02:52:58;;;;;;;8.38;3.22;;;3.70;77.40;;;;;;5040861;28;20404;-73
2021/03/18 02:55:27;;;;;;;6.13;2.92;;;3.90;76.60;;;;;;5034950;28;20105;-72
2021/03/18 02:57:55;;;;;;;6.78;3.45;;;4.00;75.80;;;;;;5040141;28;20049;-73
2021/03/18 03:00:22;;;;;;;9.80;3.50;;;4.10;76.80;;;;;;5039426;28;20110;-73
2021/03/18 03:02:49;;;;;;;12.73;3.95;;;4.00;76.30;;;;;;5033475;28;20045;-70
2021/03/18 03:05:20;;;;;;;11.55;3.42;;;4.10;76.80;;;;;;5040404;28;20103;-73
2021/03/18 03:07:46;;;;;;;7.57;3.60;;;4.00;76.40;;;;;;5043177;28;20042;-72
2021/03/18 03:10:17;;;;;;;7.43;3.25;;;4.00;75.50;;;;;;5033400;28;20052;-73
2021/03/18 03:12:45;;;;;;;16.45;3.30;;;3.90;75.30;;;;;;5041495;28;20050;-72
2021/03/18 03:15:13;;;;;;;7.38;2.95;;;3.90;74.60;;;;;;5035130;28;20072;-72
2021/03/18 03:17:41;;;;;;;11.40;3.53;;;3.90;74.50;;;;;;5060124;28;20045;-74
2021/03/18 03:20:09;;;;;;;5.25;2.85;;;3.90;75.20;;;;;;5039117;28;20050;-74
2021/03/18 03:22:36;;;;;;;10.07;3.33;;;3.90;75.40;;;;;;5033490;28;20663;-74
2021/03/18 03:25:09;;;;;;;7.70;3.55;;;3.90;75.70;;;;;;5046268;28;20532;-74
2021/03/18 03:27:36;;;;;;;7.47;3.42;;;3.90;75.50;;;;;;5040984;28;20041;-74
2021/03/18 03:30:08;;;;;;;7.50;3.40;;;3.80;75.70;;;;;;5041695;28;20053;-74
2021/03/18 03:32:35;;;;;;;7.65;2.90;;;3.90;75.50;;;;;;5041473;28;20049;-73
2021/03/18 03:35:05;;;;;;;6.72;3.03;;;4.10;74.20;;;;;;5041878;28;20056;-74
2021/03/18 03:37:32;;;;;;;8.32;3.22;;;3.90;73.90;;;;;;5041360;28;20098;-74
2021/03/18 03:39:59;;;;;;;6.93;3.33;;;3.90;74.20;;;;;;5040576;28;20055;-74
2021/03/18 03:42:26;;;;;;;7.82;3.30;;;4.00;74.90;;;;;;5040004;28;20057;-74
2021/03/18 03:44:52;;;;;;;7.18;3.03;;;4.00;74.70;;;;;;5030420;28;20152;-71
2021/03/18 03:47:19;;;;;;;6.35;3.33;;;3.90;74.80;;;;;;5045076;28;20052;-73
2021/03/18 03:49:46;;;;;;;8.77;3.50;;;3.90;75.00;;;;;;5035660;28;20060;-73
2021/03/18 03:52:15;;;;;;;6.80;3.15;;;3.70;75.60;;;;;;5034253;28;20041;-73
2021/03/18 03:55:06;;;;;;;11.30;3.55;;;3.60;75.60;;;;;;5040634;28;20048;-74
2021/03/18 03:57:38;;;;;;;9.40;3.53;;;3.60;76.30;;;;;;5042836;28;20077;-73
2021/03/18 04:00:08;;;;;;;10.77;3.20;;;3.40;76.30;;;;;;5033970;28;20404;-72
2021/03/18 04:02:58;;;;;;;8.40;3.72;;;3.40;76.80;;;;;;5042952;28;20050;-74
2021/03/18 04:05:27;;;;;;;6.22;3.30;;;3.40;77.60;;;;;;5049320;28;20116;-75
2021/03/18 04:08:00;;;;;;;8.55;3.63;;;3.40;78.60;;;;;;5036972;28;20099;-74
2021/03/18 04:10:29;;;;;;;8.60;3.90;;;3.60;78.30;;;;;;5041523;28;20045;-74
2021/03/18 04:12:57;;;;;;;9.15;3.78;;;3.20;78.00;;;;;;5045373;28;20700;-74
2021/03/18 04:15:27;;;;;;;8.43;3.38;;;3.20;78.40;;;;;;5043853;28;20049;-74
2021/03/18 04:17:55;;;;;;;6.13;3.10;;;3.30;78.10;;;;;;5043916;28;20191;-74
2021/03/18 04:20:24;;;;;;;7.00;3.88;;;3.30;78.10;;;;;;5043527;28;20090;-74
2021/03/18 04:22:55;;;;;;;5.78;2.78;;;3.30;78.10;;;;;;5045744;28;20044;-75
2021/03/18 04:25:23;;;;;;;9.20;3.13;;;3.30;77.70;;;;;;5042393;28;20129;-73
2021/03/18 04:27:51;;;;;;;8.43;3.75;;;3.20;78.00;;;;;;5038808;28;20041;-74
2021/03/18 04:30:20;;;;;;;5.57;3.80;;;3.40;78.60;;;;;;5041305;28;20048;-74
2021/03/18 04:32:48;;;;;;;6.57;2.95;;;3.10;79.30;;;;;;5042958;28;20048;-72
2021/03/18 04:35:17;;;;;;;7.63;3.05;;;3.10;79.20;;;;;;5050154;28;20037;-74
2021/03/18 04:37:44;;;;;;;5.30;2.85;;;3.00;79.80;;;;;;5047128;28;20052;-73
2021/03/18 04:40:13;;;;;;;9.98;3.20;;;3.10;79.90;;;;;;5042440;28;20542;-73
2021/03/18 04:42:40;;;;;;;4.85;3.22;;;3.20;79.70;;;;;;5038806;28;20052;-73
2021/03/18 04:45:08;;;;;;;7.65;3.35;;;3.20;80.00;;;;;;5036869;28;20053;-74
2021/03/18 04:47:35;;;;;;;5.80;3.20;;;3.30;80.90;;;;;;5041571;28;20103;-73
2021/03/18 04:50:05;;;;;;;9.15;3.00;;;3.10;80.90;;;;;;5047274;28;20388;-74
2021/03/18 04:52:31;;;;;;;8.20;3.33;;;3.10;80.70;;;;;;5047962;28;20090;-74
2021/03/18 04:54:59;;;;;;;7.55;3.30;;;3.20;81.20;;;;;;5049752;28;20045;-74
2021/03/18 04:57:26;;;;;;;12.70;4.07;;;3.00;81.00;;;;;;5040799;28;20477;-74
2021/03/18 04:59:57;;;;;;;11.05;3.95;;;3.20;81.70;;;;;;5041976;28;20063;-73
2021/03/18 05:02:25;;;;;;;8.13;3.80;;;3.00;81.30;;;;;;5048063;28;20048;-74
2021/03/18 05:05:15;;;;;;;10.38;3.35;;;3.00;81.30;;;;;;5041979;28;20064;-73
2021/03/18 05:07:44;;;;;;;7.10;3.50;;;3.00;81.10;;;;;;5044001;28;20072;-73
2021/03/18 05:10:11;;;;;;;8.57;3.78;;;3.00;81.30;;;;;;5033175;28;20095;-73
2021/03/18 05:12:39;;;;;;;9.43;3.30;;;3.20;81.50;;;;;;5048116;28;20462;-74
2021/03/18 05:15:07;;;;;;;6.65;3.15;;;2.90;81.20;;;;;;5033938;28;20095;-74
2021/03/18 05:17:36;;;;;;;6.75;3.30;;;3.00;81.00;;;;;;5049922;28;20427;-74
2021/03/18 05:20:06;;;;;;;11.02;3.00;;;2.80;81.40;;;;;;5043976;28;20124;-73
2021/03/18 05:22:33;;;;;;;8.05;3.00;;;3.00;82.20;;;;;;5043805;28;20448;-73
2021/03/18 05:25:02;;;;;;;5.82;3.22;;;3.10;81.50;;;;;;5044688;28;20060;-74
2021/03/18 05:27:29;;;;;;;7.97;3.10;;;2.90;81.50;;;;;;5039430;28;20416;-74
2021/03/18 05:29:56;;;;;;;8.57;2.90;;;2.90;81.50;;;;;;5043067;28;20103;-73
2021/03/18 05:32:23;;;;;;;6.60;3.17;;;3.00;81.60;;;;;;5043833;28;20564;-74
2021/03/18 05:34:50;;;;;;;6.10;2.65;;;2.90;80.90;;;;;;5040355;28;20693;-73
2021/03/18 05:37:16;;;;;;;8.60;2.90;;;3.20;81.20;;;;;;5049806;28;20118;-75
2021/03/18 05:39:43;;;;;;;9.15;2.75;;;3.00;80.60;;;;;;5043793;28;20069;-74
2021/03/18 05:42:09;;;;;;;9.75;3.50;;;3.00;80.20;;;;;;5034536;28;20060;-74
2021/03/18 05:44:36;;;;;;;6.38;3.20;;;3.00;80.30;;;;;;5050361;28;20076;-74
2021/03/18 05:47:04;;;;;;;10.77;3.03;;;3.10;80.40;;;;;;5041114;28;20049;-74
2021/03/18 05:49:31;;;;;;;14.63;3.20;;;2.90;80.60;;;;;;5042773;28;20049;-74
2021/03/18 05:51:58;;;;;;;6.53;3.20;;;3.00;80.90;;;;;;5046690;28;20041;-74
2021/03/18 05:54:27;;;;;;;11.98;2.88;;;2.90;81.20;;;;;;5040732;28;20377;-74
2021/03/18 05:56:55;;;;;;;5.32;2.95;;;2.90;81.50;;;;;;5037447;28;20048;-74
2021/03/18 05:59:22;;;;;;;6.88;2.92;;;3.00;80.80;;;;;;5046026;28;20114;-73
2021/03/18 06:01:50;;;;;;;5.93;2.97;;;3.10;80.80;;;;;;5033639;28;20144;-72
2021/03/18 06:04:16;;;;;;;7.72;2.85;;;3.00;80.60;;;;;;5039236;28;20057;-74
2021/03/18 06:06:44;;;;;;;4.40;2.97;;;2.90;80.60;;;;;;5042690;28;20076;-73
2021/03/18 06:09:11;;;;;;;9.30;3.38;;;2.90;81.20;;;;;;5038147;28;20077;-73
2021/03/18 06:11:39;;;;;;;5.65;3.10;;;2.90;81.30;;;;;;5037384;28;20053;-74
2021/03/18 06:14:06;;;;;;;11.82;3.72;;;2.90;81.40;;;;;;5038102;28;20036;-73
2021/03/18 06:16:34;;;;;;;13.63;3.13;;;3.00;82.10;;;;;;5038108;28;20072;-74
2021/03/18 06:19:05;;;;;;;10.05;3.05;;;2.80;82.40;;;;;;5043733;28;20433;-74
2021/03/18 06:21:50;;;;;;;6.85;3.10;;;2.80;82.50;;;;;;5039206;28;20095;-74
2021/03/18 06:24:16;;;;;;;5.50;3.55;;;3.10;83.00;;;;;;5045444;28;20476;-73
2021/03/18 06:26:43;;;;;;;9.95;3.50;;;2.90;82.90;;;;;;5046075;28;20468;-73
2021/03/18 06:29:33;;;;;;;10.80;3.40;;;3.10;82.90;;;;;;5047470;28;20045;-73
2021/03/18 06:32:16;;;;;;;70.68;5.85;;;3.10;82.60;;;;;;5042846;28;20041;-74
2021/03/18 06:34:49;;;;;;;7.88;4.32;;;3.40;82.60;;;;;;5044109;28;20061;-73
2021/03/18 06:37:35;;;;;;;15.75;4.00;;;3.20;82.10;;;;;;5039526;28;20124;-73
2021/03/18 06:40:14;;;;;;;6.93;3.78;;;3.50;81.90;;;;;;5043585;28;20140;-72
2021/03/18 06:42:56;;;;;;;13.68;3.63;;;3.70;80.80;;;;;;5043853;28;20045;-74
2021/03/18 06:45:33;;;;;;;16.23;3.97;;;3.90;80.60;;;;;;5037239;28;20053;-73
2021/03/18 06:48:02;;;;;;;9.23;3.47;;;3.80;79.90;;;;;;5045479;28;20091;-74
2021/03/18 06:50:36;;;;;;;11.80;3.75;;;4.10;78.90;;;;;;5039476;28;20166;-74
2021/03/18 06:53:23;;;;;;;8.88;3.08;;;3.90;78.30;;;;;;5039404;28;20049;-72
2021/03/18 06:55:50;;;;;;;7.53;3.38;;;4.00;78.70;;;;;;5034750;28;20045;-73
2021/03/18 06:58:21;;;;;;;6.60;3.25;;;4.10;77.90;;;;;;5042192;28;20052;-74
2021/03/18 07:00:50;;;;;;;7.07;3.38;;;4.10;77.80;;;;;;5044359;28;20106;-73
2021/03/18 07:03:37;;;;;;;7.90;3.50;;;4.30;77.70;;;;;;5039811;28;20045;-74
2021/03/18 07:06:08;;;;;;;8.85;3.53;;;4.50;77.60;;;;;;5044648;28;20048;-73
2021/03/18 07:08:39;;;;;;;8.20;3.37;;;4.40;76.90;;;;;;5041577;28;20322;-73
2021/03/18 07:11:22;;;;;;;11.30;3.80;;;4.40;77.10;;;;;;5041842;28;21091;-74
2021/03/18 07:13:50;;;;;;;7.78;3.50;;;4.60;77.40;;;;;;5041204;28;20075;-74
2021/03/18 07:16:17;;;;;;;6.15;3.08;;;4.70;77.70;;;;;;5034061;28;20087;-73
2021/03/18 07:18:59;;;;;;;11.73;4.60;;;4.50;76.60;;;;;;5048642;28;20045;-73
2021/03/18 07:21:40;;;;;;;15.13;3.80;;;4.40;76.40;;;;;;5040369;28;20408;-71
2021/03/18 07:24:28;;;;;;;8.98;3.60;;;4.50;77.30;;;;;;5040793;28;20076;-74
2021/03/18 07:26:56;;;;;;;9.57;3.63;;;4.40;76.70;;;;;;5033714;28;20110;-73
2021/03/18 07:29:27;;;;;;;14.73;5.07;;;4.40;77.30;;;;;;5034797;28;20045;-73
2021/03/18 07:31:54;;;;;;;8.52;3.65;;;4.40;76.60;;;;;;5038067;28;20053;-73
2021/03/18 07:34:21;;;;;;;8.85;3.85;;;4.80;76.10;;;;;;5040532;28;20442;-73
2021/03/18 07:37:03;;;;;;;7.70;3.53;;;4.90;75.40;;;;;;5041711;28;20056;-73
2021/03/18 07:39:30;;;;;;;7.63;3.40;;;5.20;74.50;;;;;;5038247;28;20049;-72
2021/03/18 07:41:59;;;;;;;9.52;3.47;;;5.20;74.10;;;;;;5035783;28;20045;-73
2021/03/18 07:44:26;;;;;;;10.45;3.85;;;5.50;73.70;;;;;;5039332;28;20099;-74
2021/03/18 07:46:53;;;;;;;10.82;3.63;;;5.50;73.70;;;;;;5042897;28;20041;-74
2021/03/18 07:49:27;;;;;;;11.15;4.50;;;5.60;73.30;;;;;;5038988;28;20382;-73
2021/03/18 07:52:00;;;;;;;10.57;4.15;;;5.80;72.80;;;;;;5043603;28;20079;-73
2021/03/18 07:54:27;;;;;;;7.97;3.78;;;6.10;73.20;;;;;;5047773;28;20068;-75
2021/03/18 07:56:56;;;;;;;14.48;3.90;;;6.10;72.20;;;;;;5048538;28;20037;-73
2021/03/18 07:59:30;;;;;;;8.90;3.83;;;6.30;72.10;;;;;;5037246;28;20110;-74
2021/03/18 08:02:11;;;;;;;12.75;3.17;;;5.90;71.20;;;;;;5046930;28;20408;-74
2021/03/18 08:04:46;;;;;;;10.13;3.30;;;6.00;71.70;;;;;;5043898;28;20053;-74
2021/03/18 08:07:41;;;;;;;7.85;3.20;;;6.00;71.10;;;;;;5039411;28;20060;-73
2021/03/18 08:10:10;;;;;;;10.38;3.50;;;5.60;70.10;;;;;;5038008;28;20056;-74
2021/03/18 08:12:47;;;;;;;5.45;2.88;;;5.90;71.40;;;;;;5046219;28;20053;-74
2021/03/18 08:15:42;;;;;;;5.13;3.10;;;6.00;69.80;;;;;;5046454;28;20049;-72
2021/03/18 08:18:15;;;;;;;5.40;2.92;;;6.00;69.40;;;;;;5048387;28;20439;-74
2021/03/18 08:20:41;;;;;;;11.00;3.15;;;6.30;69.70;;;;;;5045362;28;20503;-72
2021/03/18 08:23:23;;;;;;;9.73;3.47;;;6.60;69.20;;;;;;5045746;28;20437;-75
2021/03/18 08:26:01;;;;;;;14.00;5.32;;;6.90;67.40;;;;;;5041861;28;21039;-74
2021/03/18 08:28:46;;;;;;;7.68;3.53;;;6.80;66.30;;;;;;5042569;28;20049;-73
2021/03/18 08:31:19;;;;;;;7.38;3.05;;;6.70;66.70;;;;;;5045557;28;20061;-74
2021/03/18 08:33:47;;;;;;;5.68;3.42;;;6.40;66.40;;;;;;5049105;28;20036;-72
2021/03/18 08:36:24;;;;;;;12.40;3.67;;;6.40;67.00;;;;;;5046728;28;20057;-73
2021/03/18 08:38:53;;;;;;;6.72;3.33;;;6.60;66.10;;;;;;5039441;28;20049;-73
2021/03/18 08:41:33;;;;;;;7.40;3.58;;;6.60;64.80;;;;;;5045951;28;21520;-73
2021/03/18 08:44:25;;;;;;;14.30;3.88;;;6.60;66.00;;;;;;5042732;28;20156;-73
2021/03/18 08:46:52;;;;;;;9.60;4.50;;;6.80;66.30;;;;;;5037933;28;20103;-74
2021/03/18 08:49:41;;;;;;;17.38;3.65;;;6.80;65.50;;;;;;5038232;28;20050;-74
2021/03/18 08:52:10;;;;;;;13.90;4.22;;;6.50;65.80;;;;;;5043866;28;20049;-74
2021/03/18 08:54:36;;;;;;;14.23;5.07;;;6.60;65.60;;;;;;5045835;28;20081;-73
2021/03/18 08:57:07;;;;;;;17.05;5.20;;;6.80;65.70;;;;;;5045072;28;20444;-73
2021/03/18 08:59:35;;;;;;;12.05;4.03;;;6.80;65.30;;;;;;5039623;28;20081;-74
2021/03/18 09:02:10;;;;;;;9.82;3.95;;;6.70;64.00;;;;;;5038064;28;20418;-73
2021/03/18 09:04:37;;;;;;;11.55;4.22;;;6.80;64.30;;;;;;5044694;28;20068;-74
2021/03/18 09:07:08;;;;;;;7.47;3.28;;;6.70;63.60;;;;;;5047154;28;20209;-75
2021/03/18 09:09:35;;;;;;;9.60;4.35;;;6.70;63.30;;;;;;5039108;28;20142;-72
2021/03/18 09:12:02;;;;;;;11.95;4.82;;;6.90;63.80;;;;;;5043261;28;20472;-72
2021/03/18 09:14:29;;;;;;;9.40;3.97;;;6.90;63.50;;;;;;5047361;28;20049;-73
2021/03/18 09:17:10;;;;;;;11.43;4.32;;;6.80;63.60;;;;;;5036739;28;20072;-73
2021/03/18 09:19:42;;;;;;;11.60;3.90;;;6.90;63.60;;;;;;5044820;28;20877;-73
2021/03/18 09:22:13;;;;;;;13.05;3.50;;;7.10;62.70;;;;;;5041409;28;20056;-73
2021/03/18 09:24:43;;;;;;;10.65;4.07;;;7.10;61.50;;;;;;5034269;28;20049;-72
2021/03/18 09:27:12;;;;;;;10.20;3.60;;;7.30;61.20;;;;;;5043391;28;20496;-73
2021/03/18 09:29:38;;;;;;;12.95;4.05;;;7.60;60.80;;;;;;5042886;28;20452;-73
2021/03/18 09:32:11;;;;;;;9.82;3.60;;;7.80;59.80;;;;;;5039022;28;20503;-74
2021/03/18 09:34:40;;;;;;;11.85;3.22;;;8.10;59.40;;;;;;5043074;28;20372;-73
2021/03/18 09:37:10;;;;;;;10.48;3.42;;;7.70;59.50;;;;;;5035372;28;20040;-73
2021/03/18 09:39:37;;;;;;;8.77;3.72;;;7.90;59.10;;;;;;5037345;28;20496;-73
2021/03/18 09:42:06;;;;;;;8.90;3.42;;;8.30;58.80;;;;;;5049265;28;20061;-73
2021/03/18 09:44:33;;;;;;;9.43;3.85;;;8.70;57.70;;;;;;5038026;28;20045;-72
2021/03/18 09:47:06;;;;;;;10.32;3.50;;;9.00;57.30;;;;;;5036728;28;20052;-74
2021/03/18 09:49:32;;;;;;;10.90;3.80;;;9.10;56.50;;;;;;5040618;28;20057;-74
2021/03/18 09:52:01;;;;;;;8.32;3.72;;;8.70;56.80;;;;;;5047388;28;20045;-74
2021/03/18 09:54:28;;;;;;;10.07;4.10;;;9.10;57.00;;;;;;5036742;28;20138;-73
2021/03/18 09:56:59;;;;;;;9.27;3.85;;;9.10;55.00;;;;;;5034088;28;20190;-72
2021/03/18 09:59:26;;;;;;;9.40;3.72;;;9.30;55.10;;;;;;5044216;28;20480;-74
2021/03/18 10:01:52;;;;;;;7.78;3.50;;;9.50;55.50;;;;;;5044240;28;20080;-71
2021/03/18 10:04:20;;;;;;;8.75;4.20;;;9.80;54.40;;;;;;5037929;28;20045;-71
2021/03/18 10:06:54;;;;;;;9.40;3.92;;;10.20;53.00;;;;;;5042850;28;20485;-72
2021/03/18 10:09:31;;;;;;;9.57;4.45;;;10.20;53.10;;;;;;5037858;28;20053;-71
2021/03/18 10:12:00;;;;;;;11.50;4.28;;;11.60;50.60;;;;;;5046309;28;20045;-71
2021/03/18 10:14:44;;;;;;;6.55;4.20;;;10.90;50.80;;;;;;5041809;28;20057;-72
2021/03/18 10:17:17;;;;;;;8.85;4.35;;;9.80;53.70;;;;;;5037127;28;20107;-73
2021/03/18 10:19:57;;;;;;;12.65;5.18;;;9.80;54.20;;;;;;5039370;28;20384;-72
2021/03/18 10:22:36;;;;;;;9.90;5.18;;;9.70;54.50;;;;;;5043140;28;20138;-71
2021/03/18 10:25:18;;;;;;;10.00;4.82;;;9.20;55.60;;;;;;5036410;28;20056;-71
2021/03/18 10:27:57;;;;;;;13.25;5.47;;;8.90;56.20;;;;;;5040836;28;20093;-72
2021/03/18 10:30:24;;;;;;;12.23;5.32;;;11.20;51.30;;;;;;5037893;28;20049;-72
2021/03/18 10:33:13;;;;;;;11.93;5.03;;;11.60;50.70;;;;;;5040992;28;20045;-71
2021/03/18 10:35:45;;;;;;;10.40;5.00;;;10.40;52.40;;;;;;5038229;28;20046;-71
2021/03/18 10:38:18;;;;;;;14.63;6.18;;;10.20;53.00;;;;;;5035164;28;20053;-72
2021/03/18 10:40:50;;;;;;;8.05;4.97;;;10.40;53.90;;;;;;5031745;28;20053;-71
2021/03/18 10:43:24;;;;;;;14.38;6.13;;;11.00;52.40;;;;;;5037812;28;20053;-72
2021/03/18 10:46:02;;;;;;;13.70;5.43;;;10.70;53.90;;;;;;5028907;28;20098;-78
2021/03/18 10:48:32;;;;;;;12.25;5.57;;;10.10;52.30;;;;;;5044047;28;20444;-74
2021/03/18 10:51:14;;;;;;;6.88;4.22;;;9.90;55.30;;;;;;5039495;28;20100;-74
2021/03/18 10:53:42;;;;;;;7.90;4.28;;;10.60;51.70;;;;;;5062971;28;20049;-73
2021/03/18 10:56:14;;;;;;;10.30;4.50;;;10.30;51.40;;;;;;5042112;28;20059;-77
2021/03/18 10:58:41;;;;;;;11.00;4.18;;;10.70;51.90;;;;;;5045374;28;20069;-81
2021/03/18 11:01:10;;;;;;;7.85;4.38;;;11.80;49.60;;;;;;5038892;28;20084;-78
2021/03/18 11:03:39;;;;;;;11.65;4.32;;;11.70;49.30;;;;;;5042038;28;20060;-75
2021/03/18 11:06:23;;;;;;;9.73;4.25;;;11.10;50.10;;;;;;5044078;28;20140;-81
2021/03/18 11:08:54;;;;;;;8.48;3.50;;;10.80;50.20;;;;;;5045933;28;20118;-77
2021/03/18 11:11:23;;;;;;;10.80;5.18;;;10.60;50.40;;;;;;5043279;28;20048;-77
2021/03/18 11:13:51;;;;;;;12.23;4.38;;;10.40;51.00;;;;;;5042886;28;20210;-78
2021/03/18 11:16:25;;;;;;;5.97;3.30;;;10.30;51.30;;;;;;5042045;28;20052;-78
2021/03/18 11:18:59;;;;;;;13.63;4.30;;;10.50;49.00;;;;;;5057451;28;20098;-77
2021/03/18 11:21:32;;;;;;;7.40;4.05;;;10.90;48.70;;;;;;5043455;28;20053;-77
2021/03/18 11:24:06;;;;;;;12.27;3.75;;;10.70;49.20;;;;;;5069711;28;20142;-77
2021/03/18 11:26:34;;;;;;;9.88;4.53;;;10.90;49.50;;;;;;5049454;28;20053;-78
2021/03/18 11:29:11;;;;;;;11.93;4.75;;;11.10;49.90;;;;;;5048857;28;20057;-76
2021/03/18 11:31:40;;;;;;;7.50;4.05;;;10.90;50.40;;;;;;5049787;28;20072;-76
2021/03/18 11:34:17;;;;;;;9.03;3.80;;;11.00;49.30;;;;;;5048001;28;20045;-77
2021/03/18 11:36:47;;;;;;;8.38;3.55;;;11.30;47.90;;;;;;5046146;28;20068;-79
2021/03/18 11:39:13;;;;;;;3.65;2.67;;;11.70;47.20;;;;;;5048240;28;20084;-74
2021/03/18 11:41:40;;;;;;;8.55;2.95;;;11.40;45.10;;;;;;5047707;28;20107;-75
2021/03/18 11:44:06;;;;;;;5.70;2.80;;;13.50;42.30;;;;;;5042714;28;20118;-80
2021/03/18 11:46:33;;;;;;;5.75;2.70;;;14.30;41.80;;;;;;5050480;28;20079;-79
2021/03/18 11:49:00;;;;;;;7.30;2.80;;;13.90;40.80;;;;;;5046070;28;20393;-74
2021/03/18 11:51:26;;;;;;;4.80;2.30;;;11.80;44.00;;;;;;5045154;28;20140;-74
2021/03/18 11:53:53;;;;;;;10.57;2.65;;;11.90;43.60;;;;;;5046372;28;20102;-76
2021/03/18 11:56:20;;;;;;;6.78;2.67;;;12.30;44.20;;;;;;5048350;28;20160;-77
2021/03/18 11:58:47;;;;;;;6.30;2.10;;;13.30;43.20;;;;;;5048599;28;20673;-76
2021/03/18 12:01:15;;;;;;;8.32;3.38;;;13.70;40.20;;;;;;5045932;28;20057;-76
2021/03/18 12:03:42;;;;;;;7.82;3.63;;;13.30;42.70;;;;;;5047146;28;20396;-77
2021/03/18 12:06:09;;;;;;;7.10;3.42;;;13.80;43.30;;;;;;5050218;28;20121;-77
2021/03/18 12:08:36;;;;;;;8.27;3.38;;;14.00;43.00;;;;;;5043009;28;20057;-75
2021/03/18 12:11:04;;;;;;;6.82;3.30;;;14.20;42.30;;;;;;5045254;28;20060;-73
2021/03/18 12:13:34;;;;;;;5.68;2.80;;;13.60;41.40;;;;;;5045885;28;20080;-75
2021/03/18 12:16:01;;;;;;;6.43;2.80;;;12.80;42.10;;;;;;5047267;28;20045;-74
2021/03/18 12:18:28;;;;;;;5.63;3.10;;;12.40;43.20;;;;;;5047984;28;20414;-75
2021/03/18 12:20:55;;;;;;;7.18;3.40;;;11.40;43.10;;;;;;5045675;28;20122;-73
2021/03/18 12:23:22;;;;;;;6.07;3.20;;;10.90;44.80;;;;;;5048257;28;20934;-74
2021/03/18 12:25:48;;;;;;;10.98;3.25;;;10.70;46.20;;;;;;5046097;28;20041;-73
2021/03/18 12:28:19;;;;;;;11.00;3.15;;;10.70;46.80;;;;;;5045124;28;20154;-75
2021/03/18 12:30:46;;;;;;;8.65;3.42;;;12.70;45.70;;;;;;5047136;28;20458;-74
2021/03/18 12:33:14;;;;;;;4.82;3.05;;;14.00;42.30;;;;;;5046505;28;20063;-75
2021/03/18 12:35:41;;;;;;;6.03;2.75;;;14.00;40.70;;;;;;5046541;28;20040;-75
2021/03/18 12:38:07;;;;;;;6.28;2.90;;;12.30;41.20;;;;;;5046503;28;20136;-75
2021/03/18 12:40:33;;;;;;;8.18;2.72;;;11.30;43.00;;;;;;5044150;28;20068;-74
2021/03/18 12:43:05;;;;;;;6.25;3.70;;;10.90;44.00;;;;;;5043696;28;20048;-75
2021/03/18 12:45:32;;;;;;;6.18;3.38;;;11.00;45.10;;;;;;5045495;28;20136;-74
2021/03/18 12:48:02;;;;;;;8.23;3.60;;;11.00;45.50;;;;;;5046563;28;20103;-75
2021/03/18 12:50:29;;;;;;;6.10;3.20;;;10.90;45.20;;;;;;5047124;28;20064;-75
2021/03/18 12:52:56;;;;;;;7.53;2.83;;;10.90;45.90;;;;;;5046500;28;20076;-74
2021/03/18 12:55:24;;;;;;;6.88;3.47;;;10.70;45.40;;;;;;5046526;28;20048;-74
2021/03/18 12:57:54;;;;;;;7.47;3.30;;;10.50;46.00;;;;;;5045814;28;20500;-75
2021/03/18 13:00:23;;;;;;;8.05;3.47;;;10.60;47.30;;;;;;5048636;28;20522;-75
2021/03/18 13:02:51;;;;;;;7.97;3.70;;;10.30;46.90;;;;;;5043894;28;20131;-76
2021/03/18 13:05:19;;;;;;;10.15;4.35;;;10.10;49.50;;;;;;5045811;28;20087;-75
2021/03/18 13:07:46;;;;;;;7.15;3.80;;;9.60;51.90;;;;;;5040198;28;20518;-75
2021/03/18 13:10:14;;;;;;;5.90;3.70;;;9.60;57.20;;;;;;5046485;28;20044;-75
2021/03/18 13:12:41;;;;;;;9.68;4.50;;;9.40;56.80;;;;;;5046360;28;20403;-74